Terminal Aerodrome Forecast
Issued by NWS

Home | Current Version | Previous Version | Text Only | Print | Product List | Glossary Off
Versions: 1 2 3 4 5 6 7 8 9 10 11 12 13 14 15 16 17 18 19
000 FTUS41 KBOX 311729 TAFHYA TAF KHYA 311729Z 3118/0118 07010KT P6SM OVC040 FM010400 05014G21KT P6SM OVC040 FM010600 04014G22KT P6SM -SHRA OVC025 FM011200 04020G28KT P6SM -SHRA OVC015 FM011500 04023G30KT 3SM -SHRA OVC008=

USA.gov is the U.S. government's official web portal to all federal, state and local government web resources and services.